sensor_id;sensor_type;location;lat;lon;timestamp;P1;durP1;ratioP1;P2;durP2;ratioP2
54923;SDS011;40825;52.270;20.984;2022-11-10T00:00:18;30.10;;;16.40;;
54923;SDS011;40825;52.270;20.984;2022-11-10T00:03:04;35.10;;;17.80;;
54923;SDS011;40825;52.270;20.984;2022-11-10T00:05:31;33.20;;;17.60;;
54923;SDS011;40825;52.270;20.984;2022-11-10T00:08:01;36.90;;;18.40;;
54923;SDS011;40825;52.270;20.984;2022-11-10T00:10:28;36.80;;;18.80;;
54923;SDS011;40825;52.270;20.984;2022-11-10T00:12:53;34.20;;;17.00;;
54923;SDS011;40825;52.270;20.984;2022-11-10T00:15:19;36.30;;;17.20;;
54923;SDS011;40825;52.270;20.984;2022-11-10T00:18:03;37.60;;;17.80;;
54923;SDS011;40825;52.270;20.984;2022-11-10T00:20:29;38.00;;;18.70;;
54923;SDS011;40825;52.270;20.984;2022-11-10T00:22:55;35.30;;;17.70;;
54923;SDS011;40825;52.270;20.984;2022-11-10T00:25:21;40.60;;;19.30;;
54923;SDS011;40825;52.270;20.984;2022-11-10T00:27:47;39.10;;;20.60;;
54923;SDS011;40825;52.270;20.984;2022-11-10T00:30:13;34.40;;;17.90;;
54923;SDS011;40825;52.270;20.984;2022-11-10T00:32:39;37.50;;;19.10;;
54923;SDS011;40825;52.270;20.984;2022-11-10T00:35:05;36.00;;;19.00;;
54923;SDS011;40825;52.270;20.984;2022-11-10T00:37:32;38.40;;;18.60;;
54923;SDS011;40825;52.270;20.984;2022-11-10T00:39:58;39.40;;;18.80;;
54923;SDS011;40825;52.270;20.984;2022-11-10T00:42:23;36.50;;;16.90;;
54923;SDS011;40825;52.270;20.984;2022-11-10T00:44:49;39.60;;;18.20;;
54923;SDS011;40825;52.270;20.984;2022-11-10T00:47:15;37.30;;;17.80;;
54923;SDS011;40825;52.270;20.984;2022-11-10T00:49:40;36.90;;;19.10;;
54923;SDS011;40825;52.270;20.984;2022-11-10T00:52:05;38.20;;;19.00;;
54923;SDS011;40825;52.270;20.984;2022-11-10T00:54:31;36.70;;;18.80;;
54923;SDS011;40825;52.270;20.984;2022-11-10T00:56:57;37.80;;;19.90;;
54923;SDS011;40825;52.270;20.984;2022-11-10T00:59:22;37.70;;;17.40;;
54923;SDS011;40825;52.270;20.984;2022-11-10T01:01:48;34.50;;;17.40;;
54923;SDS011;40825;52.270;20.984;2022-11-10T01:04:13;29.80;;;16.10;;
54923;SDS011;40825;52.270;20.984;2022-11-10T01:06:39;35.80;;;17.60;;
54923;SDS011;40825;52.270;20.984;2022-11-10T01:09:04;34.70;;;17.60;;
54923;SDS011;40825;52.270;20.984;2022-11-10T01:11:29;35.80;;;19.50;;
54923;SDS011;40825;52.270;20.984;2022-11-10T01:13:55;36.70;;;17.60;;
54923;SDS011;40825;52.270;20.984;2022-11-10T01:16:30;34.70;;;16.40;;
54923;SDS011;40825;52.270;20.984;2022-11-10T01:21:23;37.10;;;17.10;;
54923;SDS011;40825;52.270;20.984;2022-11-10T01:23:49;39.10;;;20.00;;
54923;SDS011;40825;52.270;20.984;2022-11-10T01:26:15;33.30;;;17.90;;
54923;SDS011;40825;52.270;20.984;2022-11-10T01:28:41;39.30;;;19.00;;
54923;SDS011;40825;52.270;20.984;2022-11-10T01:31:08;37.50;;;18.50;;
54923;SDS011;40825;52.270;20.984;2022-11-10T01:36:02;35.10;;;17.80;;
54923;SDS011;40825;52.270;20.984;2022-11-10T01:38:32;37.90;;;18.20;;
54923;SDS011;40825;52.270;20.984;2022-11-10T01:41:00;40.40;;;18.80;;
54923;SDS011;40825;52.270;20.984;2022-11-10T01:43:26;39.80;;;18.80;;
54923;SDS011;40825;52.270;20.984;2022-11-10T01:46:05;36.70;;;18.70;;
54923;SDS011;40825;52.270;20.984;2022-11-10T01:48:35;40.80;;;20.40;;
54923;SDS011;40825;52.270;20.984;2022-11-10T01:51:21;37.40;;;18.70;;
54923;SDS011;40825;52.270;20.984;2022-11-10T01:53:53;38.20;;;18.70;;
54923;SDS011;40825;52.270;20.984;2022-11-10T01:56:22;36.80;;;18.30;;
54923;SDS011;40825;52.270;20.984;2022-11-10T01:58:52;38.50;;;18.20;;
54923;SDS011;40825;52.270;20.984;2022-11-10T02:01:21;36.80;;;17.90;;
54923;SDS011;40825;52.270;20.984;2022-11-10T02:03:48;35.80;;;18.70;;
54923;SDS011;40825;52.270;20.984;2022-11-10T02:06:16;37.10;;;19.60;;
54923;SDS011;40825;52.270;20.984;2022-11-10T02:08:44;35.20;;;17.60;;
54923;SDS011;40825;52.270;20.984;2022-11-10T02:11:11;39.90;;;18.20;;
54923;SDS011;40825;52.270;20.984;2022-11-10T02:13:37;33.80;;;17.70;;
54923;SDS011;40825;52.270;20.984;2022-11-10T02:16:03;34.20;;;17.30;;
54923;SDS011;40825;52.270;20.984;2022-11-10T02:18:29;39.60;;;18.70;;
54923;SDS011;40825;52.270;20.984;2022-11-10T02:20:54;37.80;;;17.30;;
54923;SDS011;40825;52.270;20.984;2022-11-10T02:25:54;37.20;;;17.30;;
54923;SDS011;40825;52.270;20.984;2022-11-10T02:28:20;39.30;;;19.20;;
54923;SDS011;40825;52.270;20.984;2022-11-10T02:30:47;34.90;;;17.30;;
54923;SDS011;40825;52.270;20.984;2022-11-10T02:33:12;38.90;;;17.60;;
54923;SDS011;40825;52.270;20.984;2022-11-10T02:35:37;36.70;;;18.10;;
54923;SDS011;40825;52.270;20.984;2022-11-10T02:38:03;38.90;;;18.40;;
54923;SDS011;40825;52.270;20.984;2022-11-10T02:40:28;34.50;;;16.90;;
54923;SDS011;40825;52.270;20.984;2022-11-10T02:42:54;39.90;;;19.40;;
54923;SDS011;40825;52.270;20.984;2022-11-10T02:45:19;33.60;;;17.60;;
54923;SDS011;40825;52.270;20.984;2022-11-10T02:47:45;32.80;;;16.30;;
54923;SDS011;40825;52.270;20.984;2022-11-10T02:50:10;34.30;;;16.20;;
54923;SDS011;40825;52.270;20.984;2022-11-10T02:52:35;32.30;;;15.90;;
54923;SDS011;40825;52.270;20.984;2022-11-10T02:55:01;41.20;;;18.60;;
54923;SDS011;40825;52.270;20.984;2022-11-10T02:57:26;37.90;;;17.40;;
54923;SDS011;40825;52.270;20.984;2022-11-10T02:59:52;33.00;;;17.00;;
54923;SDS011;40825;52.270;20.984;2022-11-10T03:02:17;38.10;;;17.50;;
54923;SDS011;40825;52.270;20.984;2022-11-10T03:04:43;35.40;;;17.40;;
54923;SDS011;40825;52.270;20.984;2022-11-10T03:07:08;38.20;;;18.50;;
54923;SDS011;40825;52.270;20.984;2022-11-10T03:09:33;40.40;;;19.80;;
54923;SDS011;40825;52.270;20.984;2022-11-10T03:11:59;34.20;;;17.90;;
54923;SDS011;40825;52.270;20.984;2022-11-10T03:14:24;38.10;;;18.40;;
54923;SDS011;40825;52.270;20.984;2022-11-10T03:16:50;34.70;;;17.70;;
54923;SDS011;40825;52.270;20.984;2022-11-10T03:19:15;36.70;;;17.70;;
54923;SDS011;40825;52.270;20.984;2022-11-10T03:21:40;37.50;;;17.30;;
54923;SDS011;40825;52.270;20.984;2022-11-10T03:24:06;37.40;;;18.30;;
54923;SDS011;40825;52.270;20.984;2022-11-10T03:26:31;38.00;;;16.90;;
54923;SDS011;40825;52.270;20.984;2022-11-10T03:28:57;44.50;;;20.80;;
54923;SDS011;40825;52.270;20.984;2022-11-10T03:31:22;35.20;;;17.80;;
54923;SDS011;40825;52.270;20.984;2022-11-10T03:33:48;33.50;;;16.70;;
54923;SDS011;40825;52.270;20.984;2022-11-10T03:36:13;40.40;;;19.20;;
54923;SDS011;40825;52.270;20.984;2022-11-10T03:38:39;38.40;;;16.50;;
54923;SDS011;40825;52.270;20.984;2022-11-10T03:41:04;36.50;;;17.80;;
54923;SDS011;40825;52.270;20.984;2022-11-10T03:43:30;40.00;;;19.10;;
54923;SDS011;40825;52.270;20.984;2022-11-10T03:45:55;37.00;;;19.30;;
54923;SDS011;40825;52.270;20.984;2022-11-10T03:48:21;33.80;;;17.20;;
54923;SDS011;40825;52.270;20.984;2022-11-10T03:50:46;30.00;;;14.40;;
54923;SDS011;40825;52.270;20.984;2022-11-10T03:53:11;37.90;;;18.00;;
54923;SDS011;40825;52.270;20.984;2022-11-10T03:55:37;37.30;;;17.70;;
54923;SDS011;40825;52.270;20.984;2022-11-10T03:58:03;33.90;;;18.90;;
54923;SDS011;40825;52.270;20.984;2022-11-10T04:00:29;43.80;;;19.60;;
54923;SDS011;40825;52.270;20.984;2022-11-10T04:02:54;34.70;;;17.90;;
54923;SDS011;40825;52.270;20.984;2022-11-10T04:05:19;39.90;;;18.90;;
54923;SDS011;40825;52.270;20.984;2022-11-10T04:08:04;43.30;;;20.10;;
54923;SDS011;40825;52.270;20.984;2022-11-10T04:10:56;38.50;;;18.20;;
54923;SDS011;40825;52.270;20.984;2022-11-10T04:13:21;40.90;;;19.30;;
54923;SDS011;40825;52.270;20.984;2022-11-10T04:16:06;39.20;;;19.30;;
54923;SDS011;40825;52.270;20.984;2022-11-10T04:18:31;34.80;;;16.90;;
54923;SDS011;40825;52.270;20.984;2022-11-10T04:20:58;37.00;;;16.70;;
54923;SDS011;40825;52.270;20.984;2022-11-10T04:23:25;35.90;;;17.90;;
54923;SDS011;40825;52.270;20.984;2022-11-10T04:28:44;39.70;;;20.10;;
54923;SDS011;40825;52.270;20.984;2022-11-10T04:31:15;37.30;;;18.30;;
54923;SDS011;40825;52.270;20.984;2022-11-10T04:33:42;42.10;;;19.30;;
54923;SDS011;40825;52.270;20.984;2022-11-10T04:36:10;42.20;;;19.70;;
54923;SDS011;40825;52.270;20.984;2022-11-10T04:38:37;41.70;;;18.80;;
54923;SDS011;40825;52.270;20.984;2022-11-10T04:41:04;35.30;;;18.10;;
54923;SDS011;40825;52.270;20.984;2022-11-10T04:43:30;40.10;;;19.20;;
54923;SDS011;40825;52.270;20.984;2022-11-10T04:45:55;44.70;;;21.10;;
54923;SDS011;40825;52.270;20.984;2022-11-10T04:48:21;39.60;;;19.20;;
54923;SDS011;40825;52.270;20.984;2022-11-10T04:50:47;38.60;;;18.80;;
54923;SDS011;40825;52.270;20.984;2022-11-10T04:53:13;40.30;;;19.90;;
54923;SDS011;40825;52.270;20.984;2022-11-10T04:55:40;40.10;;;19.50;;
54923;SDS011;40825;52.270;20.984;2022-11-10T04:58:07;37.30;;;16.50;;
54923;SDS011;40825;52.270;20.984;2022-11-10T05:00:33;37.20;;;17.90;;
54923;SDS011;40825;52.270;20.984;2022-11-10T05:03:00;39.80;;;17.40;;
54923;SDS011;40825;52.270;20.984;2022-11-10T05:05:26;40.80;;;19.40;;
54923;SDS011;40825;52.270;20.984;2022-11-10T05:07:52;42.40;;;19.70;;
54923;SDS011;40825;52.270;20.984;2022-11-10T05:10:17;38.20;;;18.00;;
54923;SDS011;40825;52.270;20.984;2022-11-10T05:12:43;39.20;;;19.00;;
54923;SDS011;40825;52.270;20.984;2022-11-10T05:15:09;38.90;;;18.80;;
54923;SDS011;40825;52.270;20.984;2022-11-10T05:17:35;33.10;;;15.60;;
54923;SDS011;40825;52.270;20.984;2022-11-10T05:20:00;37.00;;;18.00;;
54923;SDS011;40825;52.270;20.984;2022-11-10T05:22:26;42.70;;;19.60;;
54923;SDS011;40825;52.270;20.984;2022-11-10T05:24:51;42.30;;;19.80;;
54923;SDS011;40825;52.270;20.984;2022-11-10T05:27:17;39.80;;;18.40;;
54923;SDS011;40825;52.270;20.984;2022-11-10T05:29:42;38.20;;;17.80;;
54923;SDS011;40825;52.270;20.984;2022-11-10T05:32:08;40.60;;;20.00;;
54923;SDS011;40825;52.270;20.984;2022-11-10T05:34:33;37.20;;;19.30;;
54923;SDS011;40825;52.270;20.984;2022-11-10T05:36:59;40.40;;;19.00;;
54923;SDS011;40825;52.270;20.984;2022-11-10T05:39:24;39.60;;;17.90;;
54923;SDS011;40825;52.270;20.984;2022-11-10T05:41:49;45.20;;;19.90;;
54923;SDS011;40825;52.270;20.984;2022-11-10T05:44:15;40.50;;;18.20;;
54923;SDS011;40825;52.270;20.984;2022-11-10T05:46:41;42.80;;;19.40;;
54923;SDS011;40825;52.270;20.984;2022-11-10T05:49:07;38.80;;;18.70;;
54923;SDS011;40825;52.270;20.984;2022-11-10T05:51:34;40.00;;;18.30;;
54923;SDS011;40825;52.270;20.984;2022-11-10T05:53:59;43.70;;;18.80;;
54923;SDS011;40825;52.270;20.984;2022-11-10T05:56:25;40.00;;;18.90;;
54923;SDS011;40825;52.270;20.984;2022-11-10T05:58:51;39.20;;;17.80;;
54923;SDS011;40825;52.270;20.984;2022-11-10T06:01:16;37.50;;;16.80;;
54923;SDS011;40825;52.270;20.984;2022-11-10T06:03:42;43.60;;;20.30;;
54923;SDS011;40825;52.270;20.984;2022-11-10T06:06:07;43.30;;;20.20;;
54923;SDS011;40825;52.270;20.984;2022-11-10T06:08:33;38.90;;;17.90;;
54923;SDS011;40825;52.270;20.984;2022-11-10T06:10:58;44.40;;;19.30;;
54923;SDS011;40825;52.270;20.984;2022-11-10T06:13:23;40.30;;;18.50;;
54923;SDS011;40825;52.270;20.984;2022-11-10T06:15:49;38.10;;;17.60;;
54923;SDS011;40825;52.270;20.984;2022-11-10T06:18:15;39.80;;;17.20;;
54923;SDS011;40825;52.270;20.984;2022-11-10T06:20:41;34.70;;;15.00;;
54923;SDS011;40825;52.270;20.984;2022-11-10T06:23:10;43.00;;;18.30;;
54923;SDS011;40825;52.270;20.984;2022-11-10T06:25:36;41.70;;;20.40;;
54923;SDS011;40825;52.270;20.984;2022-11-10T06:28:03;44.30;;;18.60;;
54923;SDS011;40825;52.270;20.984;2022-11-10T06:30:31;42.20;;;19.90;;
54923;SDS011;40825;52.270;20.984;2022-11-10T06:32:58;43.70;;;19.70;;
54923;SDS011;40825;52.270;20.984;2022-11-10T06:35:24;40.40;;;18.10;;
54923;SDS011;40825;52.270;20.984;2022-11-10T06:40:26;31.60;;;15.20;;
54923;SDS011;40825;52.270;20.984;2022-11-10T06:42:52;40.90;;;17.90;;
54923;SDS011;40825;52.270;20.984;2022-11-10T06:45:18;40.30;;;17.30;;
54923;SDS011;40825;52.270;20.984;2022-11-10T06:47:44;45.60;;;20.10;;
54923;SDS011;40825;52.270;20.984;2022-11-10T06:50:09;44.00;;;20.40;;
54923;SDS011;40825;52.270;20.984;2022-11-10T06:52:34;47.80;;;20.40;;
54923;SDS011;40825;52.270;20.984;2022-11-10T06:55:00;43.40;;;19.20;;
54923;SDS011;40825;52.270;20.984;2022-11-10T06:57:26;43.80;;;19.10;;
54923;SDS011;40825;52.270;20.984;2022-11-10T06:59:52;38.60;;;18.30;;
54923;SDS011;40825;52.270;20.984;2022-11-10T07:02:18;44.50;;;19.40;;
54923;SDS011;40825;52.270;20.984;2022-11-10T07:04:43;40.30;;;18.10;;
54923;SDS011;40825;52.270;20.984;2022-11-10T07:07:09;35.80;;;17.40;;
54923;SDS011;40825;52.270;20.984;2022-11-10T07:09:35;37.30;;;18.50;;
54923;SDS011;40825;52.270;20.984;2022-11-10T07:12:02;42.60;;;18.50;;
54923;SDS011;40825;52.270;20.984;2022-11-10T07:14:28;38.10;;;17.40;;
54923;SDS011;40825;52.270;20.984;2022-11-10T07:16:54;44.20;;;18.60;;
54923;SDS011;40825;52.270;20.984;2022-11-10T07:19:19;41.40;;;17.50;;
54923;SDS011;40825;52.270;20.984;2022-11-10T07:21:45;37.90;;;18.30;;
54923;SDS011;40825;52.270;20.984;2022-11-10T07:24:10;39.50;;;17.20;;
54923;SDS011;40825;52.270;20.984;2022-11-10T07:26:36;42.60;;;18.70;;
54923;SDS011;40825;52.270;20.984;2022-11-10T07:29:01;46.50;;;21.80;;
54923;SDS011;40825;52.270;20.984;2022-11-10T07:31:26;38.80;;;17.00;;
54923;SDS011;40825;52.270;20.984;2022-11-10T07:33:52;38.00;;;17.10;;
54923;SDS011;40825;52.270;20.984;2022-11-10T07:36:17;36.60;;;18.00;;
54923;SDS011;40825;52.270;20.984;2022-11-10T07:38:43;36.90;;;16.60;;
54923;SDS011;40825;52.270;20.984;2022-11-10T07:41:08;38.30;;;19.00;;
54923;SDS011;40825;52.270;20.984;2022-11-10T07:43:33;37.00;;;17.10;;
54923;SDS011;40825;52.270;20.984;2022-11-10T07:45:59;40.50;;;18.40;;
54923;SDS011;40825;52.270;20.984;2022-11-10T07:48:25;38.30;;;18.10;;
54923;SDS011;40825;52.270;20.984;2022-11-10T07:50:50;38.60;;;17.60;;
54923;SDS011;40825;52.270;20.984;2022-11-10T07:53:17;37.00;;;17.90;;
54923;SDS011;40825;52.270;20.984;2022-11-10T07:55:44;33.80;;;15.70;;
54923;SDS011;40825;52.270;20.984;2022-11-10T07:58:11;38.40;;;17.60;;
54923;SDS011;40825;52.270;20.984;2022-11-10T08:00:39;34.20;;;15.80;;
54923;SDS011;40825;52.270;20.984;2022-11-10T08:03:06;38.20;;;17.30;;
54923;SDS011;40825;52.270;20.984;2022-11-10T08:05:34;41.10;;;17.50;;
54923;SDS011;40825;52.270;20.984;2022-11-10T08:08:00;35.30;;;17.10;;
54923;SDS011;40825;52.270;20.984;2022-11-10T08:10:26;40.60;;;17.90;;
54923;SDS011;40825;52.270;20.984;2022-11-10T08:12:56;34.70;;;16.00;;
54923;SDS011;40825;52.270;20.984;2022-11-10T08:15:23;37.60;;;17.40;;
54923;SDS011;40825;52.270;20.984;2022-11-10T08:17:50;38.70;;;18.20;;
54923;SDS011;40825;52.270;20.984;2022-11-10T08:20:16;34.60;;;15.90;;
54923;SDS011;40825;52.270;20.984;2022-11-10T08:22:42;35.60;;;16.60;;
54923;SDS011;40825;52.270;20.984;2022-11-10T08:25:08;32.80;;;15.90;;
54923;SDS011;40825;52.270;20.984;2022-11-10T08:27:34;39.20;;;16.80;;
54923;SDS011;40825;52.270;20.984;2022-11-10T08:29:59;32.50;;;15.00;;
54923;SDS011;40825;52.270;20.984;2022-11-10T08:32:25;34.70;;;15.50;;
54923;SDS011;40825;52.270;20.984;2022-11-10T08:34:50;32.40;;;15.40;;
54923;SDS011;40825;52.270;20.984;2022-11-10T08:37:16;34.00;;;15.00;;
54923;SDS011;40825;52.270;20.984;2022-11-10T08:39:42;34.80;;;16.40;;
54923;SDS011;40825;52.270;20.984;2022-11-10T08:42:07;37.30;;;17.00;;
54923;SDS011;40825;52.270;20.984;2022-11-10T08:44:33;32.00;;;15.10;;
54923;SDS011;40825;52.270;20.984;2022-11-10T08:46:58;31.20;;;13.20;;
54923;SDS011;40825;52.270;20.984;2022-11-10T08:49:23;32.00;;;15.40;;
54923;SDS011;40825;52.270;20.984;2022-11-10T08:51:49;35.40;;;15.60;;
54923;SDS011;40825;52.270;20.984;2022-11-10T08:54:14;30.90;;;16.50;;
54923;SDS011;40825;52.270;20.984;2022-11-10T08:56:40;35.10;;;15.90;;
54923;SDS011;40825;52.270;20.984;2022-11-10T08:59:05;35.60;;;16.30;;
54923;SDS011;40825;52.270;20.984;2022-11-10T09:01:31;35.90;;;15.70;;
54923;SDS011;40825;52.270;20.984;2022-11-10T09:03:56;34.10;;;15.10;;
54923;SDS011;40825;52.270;20.984;2022-11-10T09:06:21;39.80;;;16.90;;
54923;SDS011;40825;52.270;20.984;2022-11-10T09:08:47;36.80;;;16.40;;
54923;SDS011;40825;52.270;20.984;2022-11-10T09:11:13;34.70;;;16.50;;
54923;SDS011;40825;52.270;20.984;2022-11-10T09:13:38;36.30;;;16.40;;
54923;SDS011;40825;52.270;20.984;2022-11-10T09:16:03;41.00;;;17.20;;
54923;SDS011;40825;52.270;20.984;2022-11-10T09:18:29;38.00;;;17.40;;
54923;SDS011;40825;52.270;20.984;2022-11-10T09:20:55;31.80;;;15.70;;
54923;SDS011;40825;52.270;20.984;2022-11-10T09:23:21;31.20;;;16.10;;
54923;SDS011;40825;52.270;20.984;2022-11-10T09:25:49;36.40;;;17.20;;
54923;SDS011;40825;52.270;20.984;2022-11-10T09:28:17;35.50;;;17.10;;
54923;SDS011;40825;52.270;20.984;2022-11-10T09:30:45;36.10;;;17.80;;
54923;SDS011;40825;52.270;20.984;2022-11-10T09:33:11;33.90;;;16.10;;
54923;SDS011;40825;52.270;20.984;2022-11-10T09:35:37;34.70;;;15.90;;
54923;SDS011;40825;52.270;20.984;2022-11-10T09:38:03;34.80;;;15.80;;
54923;SDS011;40825;52.270;20.984;2022-11-10T09:42:58;31.90;;;16.60;;
54923;SDS011;40825;52.270;20.984;2022-11-10T09:45:30;28.70;;;14.60;;
54923;SDS011;40825;52.270;20.984;2022-11-10T09:48:02;30.50;;;14.40;;
54923;SDS011;40825;52.270;20.984;2022-11-10T09:50:48;31.40;;;15.20;;
54923;SDS011;40825;52.270;20.984;2022-11-10T09:53:22;31.00;;;14.70;;
54923;SDS011;40825;52.270;20.984;2022-11-10T09:55:52;27.80;;;14.60;;
54923;SDS011;40825;52.270;20.984;2022-11-10T09:58:24;26.40;;;13.40;;
54923;SDS011;40825;52.270;20.984;2022-11-10T10:00:59;26.90;;;14.20;;
54923;SDS011;40825;52.270;20.984;2022-11-10T10:03:39;28.60;;;14.50;;
54923;SDS011;40825;52.270;20.984;2022-11-10T10:06:13;26.40;;;13.20;;
54923;SDS011;40825;52.270;20.984;2022-11-10T10:11:09;27.20;;;13.60;;
54923;SDS011;40825;52.270;20.984;2022-11-10T10:16:19;26.60;;;13.60;;
54923;SDS011;40825;52.270;20.984;2022-11-10T10:19:34;27.00;;;14.00;;
54923;SDS011;40825;52.270;20.984;2022-11-10T10:21:57;27.20;;;12.90;;
54923;SDS011;40825;52.270;20.984;2022-11-10T10:24:26;26.00;;;14.30;;
54923;SDS011;40825;52.270;20.984;2022-11-10T10:26:54;28.30;;;13.60;;
54923;SDS011;40825;52.270;20.984;2022-11-10T10:29:56;20.60;;;11.10;;
54923;SDS011;40825;52.270;20.984;2022-11-10T10:32:16;27.00;;;12.90;;
54923;SDS011;40825;52.270;20.984;2022-11-10T10:34:43;21.00;;;11.50;;
54923;SDS011;40825;52.270;20.984;2022-11-10T10:37:21;26.40;;;14.10;;
54923;SDS011;40825;52.270;20.984;2022-11-10T10:39:47;25.90;;;13.90;;
54923;SDS011;40825;52.270;20.984;2022-11-10T10:42:18;26.10;;;13.20;;
54923;SDS011;40825;52.270;20.984;2022-11-10T10:47:48;21.40;;;12.20;;
54923;SDS011;40825;52.270;20.984;2022-11-10T10:53:11;23.20;;;13.30;;
54923;SDS011;40825;52.270;20.984;2022-11-10T10:55:59;23.70;;;13.40;;
54923;SDS011;40825;52.270;20.984;2022-11-10T10:58:32;23.50;;;11.80;;
54923;SDS011;40825;52.270;20.984;2022-11-10T11:01:03;24.60;;;13.10;;
54923;SDS011;40825;52.270;20.984;2022-11-10T11:03:41;22.00;;;11.60;;
54923;SDS011;40825;52.270;20.984;2022-11-10T11:11:34;21.50;;;11.90;;
54923;SDS011;40825;52.270;20.984;2022-11-10T11:16:53;20.80;;;11.20;;
54923;SDS011;40825;52.270;20.984;2022-11-10T11:24:47;18.70;;;10.10;;
54923;SDS011;40825;52.270;20.984;2022-11-10T11:30:23;20.30;;;10.50;;
54923;SDS011;40825;52.270;20.984;2022-11-10T11:44:08;17.60;;;9.80;;
54923;SDS011;40825;52.270;20.984;2022-11-10T11:50:01;19.40;;;9.80;;
54923;SDS011;40825;52.270;20.984;2022-11-10T11:52:47;16.40;;;9.60;;
54923;SDS011;40825;52.270;20.984;2022-11-10T11:58:45;21.40;;;11.00;;
54923;SDS011;40825;52.270;20.984;2022-11-10T12:07:33;18.80;;;10.30;;
54923;SDS011;40825;52.270;20.984;2022-11-10T12:12:53;16.30;;;9.50;;
54923;SDS011;40825;52.270;20.984;2022-11-10T12:15:37;20.50;;;11.30;;
54923;SDS011;40825;52.270;20.984;2022-11-10T12:20:51;16.00;;;8.90;;
54923;SDS011;40825;52.270;20.984;2022-11-10T12:23:48;18.40;;;10.40;;
54923;SDS011;40825;52.270;20.984;2022-11-10T12:26:28;17.40;;;10.00;;
54923;SDS011;40825;52.270;20.984;2022-11-10T12:29:04;18.10;;;9.70;;
54923;SDS011;40825;52.270;20.984;2022-11-10T12:31:48;16.50;;;9.10;;
54923;SDS011;40825;52.270;20.984;2022-11-10T12:34:27;17.60;;;10.00;;
54923;SDS011;40825;52.270;20.984;2022-11-10T12:36:58;17.70;;;9.60;;
54923;SDS011;40825;52.270;20.984;2022-11-10T12:42:11;15.30;;;8.40;;
54923;SDS011;40825;52.270;20.984;2022-11-10T12:44:53;16.90;;;9.60;;
54923;SDS011;40825;52.270;20.984;2022-11-10T12:47:20;20.40;;;9.00;;
54923;SDS011;40825;52.270;20.984;2022-11-10T12:50:05;16.40;;;8.40;;
54923;SDS011;40825;52.270;20.984;2022-11-10T12:52:36;18.30;;;8.70;;
54923;SDS011;40825;52.270;20.984;2022-11-10T12:55:10;16.20;;;8.90;;
54923;SDS011;40825;52.270;20.984;2022-11-10T12:57:38;13.20;;;8.10;;
54923;SDS011;40825;52.270;20.984;2022-11-10T13:00:21;16.50;;;7.90;;
54923;SDS011;40825;52.270;20.984;2022-11-10T13:02:49;15.40;;;9.30;;
54923;SDS011;40825;52.270;20.984;2022-11-10T13:08:05;15.60;;;7.90;;
54923;SDS011;40825;52.270;20.984;2022-11-10T13:10:45;16.80;;;8.20;;
54923;SDS011;40825;52.270;20.984;2022-11-10T13:13:15;13.20;;;7.10;;
54923;SDS011;40825;52.270;20.984;2022-11-10T13:15:44;15.70;;;8.20;;
54923;SDS011;40825;52.270;20.984;2022-11-10T13:18:22;15.70;;;8.70;;
54923;SDS011;40825;52.270;20.984;2022-11-10T13:20:57;19.10;;;10.20;;
54923;SDS011;40825;52.270;20.984;2022-11-10T13:31:57;13.50;;;7.10;;
54923;SDS011;40825;52.270;20.984;2022-11-10T13:34:28;15.40;;;8.30;;
54923;SDS011;40825;52.270;20.984;2022-11-10T13:36:55;13.50;;;7.60;;
54923;SDS011;40825;52.270;20.984;2022-11-10T13:41:57;14.20;;;8.40;;
54923;SDS011;40825;52.270;20.984;2022-11-10T13:44:25;12.90;;;7.20;;
54923;SDS011;40825;52.270;20.984;2022-11-10T13:47:09;15.30;;;7.80;;
54923;SDS011;40825;52.270;20.984;2022-11-10T13:52:50;15.50;;;7.70;;
54923;SDS011;40825;52.270;20.984;2022-11-10T13:55:30;15.30;;;8.10;;
54923;SDS011;40825;52.270;20.984;2022-11-10T13:58:09;13.80;;;7.90;;
54923;SDS011;40825;52.270;20.984;2022-11-10T14:00:42;13.90;;;8.10;;
54923;SDS011;40825;52.270;20.984;2022-11-10T14:06:21;16.50;;;8.60;;
54923;SDS011;40825;52.270;20.984;2022-11-10T14:08:55;17.20;;;8.10;;
54923;SDS011;40825;52.270;20.984;2022-11-10T14:11:26;14.50;;;8.30;;
54923;SDS011;40825;52.270;20.984;2022-11-10T14:14:23;14.30;;;7.30;;
54923;SDS011;40825;52.270;20.984;2022-11-10T14:16:54;13.90;;;8.20;;
54923;SDS011;40825;52.270;20.984;2022-11-10T14:22:19;16.40;;;8.90;;
54923;SDS011;40825;52.270;20.984;2022-11-10T14:27:42;13.80;;;7.50;;
54923;SDS011;40825;52.270;20.984;2022-11-10T14:30:21;13.10;;;7.70;;
54923;SDS011;40825;52.270;20.984;2022-11-10T14:33:08;12.30;;;6.90;;
54923;SDS011;40825;52.270;20.984;2022-11-10T14:35:44;15.60;;;8.00;;
54923;SDS011;40825;52.270;20.984;2022-11-10T14:38:21;15.50;;;7.70;;
54923;SDS011;40825;52.270;20.984;2022-11-10T14:40:49;13.30;;;7.80;;
54923;SDS011;40825;52.270;20.984;2022-11-10T14:45:54;14.20;;;7.30;;
54923;SDS011;40825;52.270;20.984;2022-11-10T14:48:21;18.40;;;9.70;;
54923;SDS011;40825;52.270;20.984;2022-11-10T14:50:48;18.20;;;8.60;;
54923;SDS011;40825;52.270;20.984;2022-11-10T14:53:18;15.70;;;8.90;;
54923;SDS011;40825;52.270;20.984;2022-11-10T14:55:49;17.60;;;8.10;;
54923;SDS011;40825;52.270;20.984;2022-11-10T14:58:20;15.90;;;9.30;;
54923;SDS011;40825;52.270;20.984;2022-11-10T15:00:48;15.00;;;8.10;;
54923;SDS011;40825;52.270;20.984;2022-11-10T15:03:17;15.80;;;8.80;;
54923;SDS011;40825;52.270;20.984;2022-11-10T15:05:50;14.50;;;8.30;;
54923;SDS011;40825;52.270;20.984;2022-11-10T15:08:16;17.70;;;8.90;;
54923;SDS011;40825;52.270;20.984;2022-11-10T15:10:43;17.50;;;8.40;;
54923;SDS011;40825;52.270;20.984;2022-11-10T15:15:37;15.70;;;9.00;;
54923;SDS011;40825;52.270;20.984;2022-11-10T15:18:03;17.10;;;9.70;;
54923;SDS011;40825;52.270;20.984;2022-11-10T15:20:32;16.40;;;9.20;;
54923;SDS011;40825;52.270;20.984;2022-11-10T15:23:18;15.50;;;8.20;;
54923;SDS011;40825;52.270;20.984;2022-11-10T15:25:46;14.00;;;8.20;;
54923;SDS011;40825;52.270;20.984;2022-11-10T15:30:46;16.50;;;8.40;;
54923;SDS011;40825;52.270;20.984;2022-11-10T15:33:19;15.50;;;8.70;;
54923;SDS011;40825;52.270;20.984;2022-11-10T15:35:49;15.80;;;9.30;;
54923;SDS011;40825;52.270;20.984;2022-11-10T15:40:44;16.10;;;8.60;;
54923;SDS011;40825;52.270;20.984;2022-11-10T15:46:02;17.70;;;9.60;;
54923;SDS011;40825;52.270;20.984;2022-11-10T15:48:36;19.20;;;10.10;;
54923;SDS011;40825;52.270;20.984;2022-11-10T15:51:07;16.60;;;9.60;;
54923;SDS011;40825;52.270;20.984;2022-11-10T15:53:39;17.60;;;8.90;;
54923;SDS011;40825;52.270;20.984;2022-11-10T15:56:14;16.90;;;8.90;;
54923;SDS011;40825;52.270;20.984;2022-11-10T15:58:45;16.80;;;9.40;;
54923;SDS011;40825;52.270;20.984;2022-11-10T16:01:13;18.40;;;11.00;;
54923;SDS011;40825;52.270;20.984;2022-11-10T16:03:39;19.60;;;10.00;;
54923;SDS011;40825;52.270;20.984;2022-11-10T16:06:05;14.80;;;9.50;;
54923;SDS011;40825;52.270;20.984;2022-11-10T16:08:31;18.10;;;10.10;;
54923;SDS011;40825;52.270;20.984;2022-11-10T16:10:58;16.40;;;9.80;;
54923;SDS011;40825;52.270;20.984;2022-11-10T16:13:28;17.90;;;9.80;;